East Chicago, Indiana
Current Conditions -  °F | °C
As of 3:15 AM on Sunday 23 Nov 2014 (Local Time) from KGYY Reporting Station
Overcast Overcast  
Wind Chill: 51°   Ceiling: 7500
Heat Index: 51°   Visibility: 10mi
Dew Point: 46°   Wind: 12mph
Humidity: 83%   Direction: 160°SSE
Pressure: 29.82"   Gusts: NA
Location:  41.63°N, 87.48°W
Report Text: KGYY 230915Z AUTO 16010KT 10SM SCT050 OVC075 11/08 A2982 RMK AO2 T01050078
Loading
Personal Weather Stations






























Interactive Weather Map New forecast layout! Learn more

10-Day Weather Forecast

Advertisements
Track Severe Weather on mobile